Terminal Aerodrome Forecast
Issued by NWS Cleveland, OH

Home | Current Version | Previous Version | Graphics & Text | Print | Product List | Glossary Off
Versions: 1 2 3 4 5 6 7 8 9 10 11 12 13 14 15 16 17 18 19 20

000
FTUS41 KCLE 240500
TAFERI
TAF
KERI 240536Z 2406/2506 04008KT P6SM SCT025 OVC040
     FM240900 36005KT P6SM SCT040 OVC060
     FM241100 36005KT P6SM SCT060
     FM241300 36007KT P6SM SKC=

USA.gov is the U.S. government's official web portal to all federal, state and local government web resources and services.